METAR Data
IDs: Format: Raw Decoded Include TAF

Data at: 1809 UTC 03 Jul 2020

METAR for:KI69 (Batavia/Clermont Cnt, OH, US)
Text:KI69 031755Z AUTO 03008KT 10SM CLR 31/17 A3004 RMK AO2 T03130166 10316 20210
Temperature: 31.3°C ( 88°F)
Dewpoint: 16.6°C ( 62°F) [RH = 41%]
Pressure (altimeter):30.04 inches Hg (1017.4 mb)
Winds:from the NNE (30 degrees) at 9 MPH (8 knots; 4.1 m/s)
Visibility:10 or more sm (16+ km)
Ceiling:at least 12,000 feet AGL
Clouds:sky clear below 12,000 feet AGL
QC Flag:automated observation with no human augmentation